sensor_id;sensor_type;location;lat;lon;timestamp;temperature;humidity
3912;DHT22;1971;51.778;10.330;2022-10-13T00:02:25;9.80;99.90
3912;DHT22;1971;51.778;10.330;2022-10-13T00:04:55;9.80;99.90
3912;DHT22;1971;51.778;10.330;2022-10-13T00:07:26;9.90;99.90
3912;DHT22;1971;51.778;10.330;2022-10-13T00:09:59;9.80;99.90
3912;DHT22;1971;51.778;10.330;2022-10-13T00:12:29;9.80;99.90
3912;DHT22;1971;51.778;10.330;2022-10-13T00:15:01;9.80;99.90
3912;DHT22;1971;51.778;10.330;2022-10-13T00:17:31;9.80;99.90
3912;DHT22;1971;51.778;10.330;2022-10-13T00:20:02;9.80;99.90
3912;DHT22;1971;51.778;10.330;2022-10-13T00:22:32;9.80;99.90
3912;DHT22;1971;51.778;10.330;2022-10-13T00:25:06;9.90;99.90
3912;DHT22;1971;51.778;10.330;2022-10-13T00:27:37;9.90;99.90
3912;DHT22;1971;51.778;10.330;2022-10-13T00:30:07;9.90;99.90
3912;DHT22;1971;51.778;10.330;2022-10-13T00:32:38;9.90;99.90
3912;DHT22;1971;51.778;10.330;2022-10-13T00:35:09;9.90;99.90
3912;DHT22;1971;51.778;10.330;2022-10-13T00:37:40;9.90;99.90
3912;DHT22;1971;51.778;10.330;2022-10-13T00:40:13;9.70;99.90
3912;DHT22;1971;51.778;10.330;2022-10-13T00:42:43;9.70;99.90
3912;DHT22;1971;51.778;10.330;2022-10-13T00:45:20;9.80;99.90
3912;DHT22;1971;51.778;10.330;2022-10-13T00:47:54;9.80;99.90
3912;DHT22;1971;51.778;10.330;2022-10-13T00:50:28;9.70;1.00
3912;DHT22;1971;51.778;10.330;2022-10-13T00:53:01;9.60;1.00
3912;DHT22;1971;51.778;10.330;2022-10-13T00:55:36;9.50;1.00
3912;DHT22;1971;51.778;10.330;2022-10-13T00:58:10;9.50;1.00
3912;DHT22;1971;51.778;10.330;2022-10-13T01:00:44;9.50;1.00
3912;DHT22;1971;51.778;10.330;2022-10-13T01:03:16;9.50;1.00
3912;DHT22;1971;51.778;10.330;2022-10-13T01:05:49;9.40;1.00
3912;DHT22;1971;51.778;10.330;2022-10-13T01:08:21;9.60;1.00
3912;DHT22;1971;51.778;10.330;2022-10-13T01:11:18;9.30;1.00
3912;DHT22;1971;51.778;10.330;2022-10-13T01:13:57;9.40;1.00
3912;DHT22;1971;51.778;10.330;2022-10-13T01:16:36;9.70;1.00
3912;DHT22;1971;51.778;10.330;2022-10-13T01:19:19;9.70;1.00
3912;DHT22;1971;51.778;10.330;2022-10-13T01:22:03;9.70;1.00
3912;DHT22;1971;51.778;10.330;2022-10-13T01:24:42;9.60;1.00
3912;DHT22;1971;51.778;10.330;2022-10-13T01:27:37;9.60;1.00
3912;DHT22;1971;51.778;10.330;2022-10-13T01:30:17;9.60;1.00
3912;DHT22;1971;51.778;10.330;2022-10-13T01:35:52;9.90;1.00
3912;DHT22;1971;51.778;10.330;2022-10-13T01:38:30;9.90;1.00
3912;DHT22;1971;51.778;10.330;2022-10-13T01:41:06;9.80;1.00
3912;DHT22;1971;51.778;10.330;2022-10-13T01:43:42;9.80;1.00
3912;DHT22;1971;51.778;10.330;2022-10-13T01:46:21;10.30;1.00
3912;DHT22;1971;51.778;10.330;2022-10-13T01:48:55;9.90;1.00
3912;DHT22;1971;51.778;10.330;2022-10-13T01:51:28;10.00;1.00
3912;DHT22;1971;51.778;10.330;2022-10-13T01:54:00;10.00;1.00
3912;DHT22;1971;51.778;10.330;2022-10-13T01:56:30;10.00;1.00
3912;DHT22;1971;51.778;10.330;2022-10-13T01:59:02;10.10;1.00
3912;DHT22;1971;51.778;10.330;2022-10-13T02:01:53;10.00;1.00
3912;DHT22;1971;51.778;10.330;2022-10-13T02:04:36;10.00;1.00
3912;DHT22;1971;51.778;10.330;2022-10-13T02:07:17;10.00;1.00
3912;DHT22;1971;51.778;10.330;2022-10-13T02:09:54;10.10;1.00
3912;DHT22;1971;51.778;10.330;2022-10-13T02:12:29;10.00;1.00
3912;DHT22;1971;51.778;10.330;2022-10-13T02:15:00;10.00;1.00
3912;DHT22;1971;51.778;10.330;2022-10-13T02:17:34;10.10;1.00
3912;DHT22;1971;51.778;10.330;2022-10-13T02:20:06;9.90;1.00
3912;DHT22;1971;51.778;10.330;2022-10-13T02:22:40;9.90;1.00
3912;DHT22;1971;51.778;10.330;2022-10-13T02:25:13;9.90;1.00
3912;DHT22;1971;51.778;10.330;2022-10-13T02:27:43;9.90;1.00
3912;DHT22;1971;51.778;10.330;2022-10-13T02:30:23;9.80;1.00
3912;DHT22;1971;51.778;10.330;2022-10-13T02:32:56;10.00;1.00
3912;DHT22;1971;51.778;10.330;2022-10-13T02:35:27;9.80;1.00
3912;DHT22;1971;51.778;10.330;2022-10-13T02:37:59;9.70;1.00
3912;DHT22;1971;51.778;10.330;2022-10-13T02:40:30;9.70;1.00
3912;DHT22;1971;51.778;10.330;2022-10-13T02:43:00;9.70;1.00
3912;DHT22;1971;51.778;10.330;2022-10-13T02:45:31;9.80;1.00
3912;DHT22;1971;51.778;10.330;2022-10-13T02:48:04;9.70;1.00
3912;DHT22;1971;51.778;10.330;2022-10-13T02:50:34;9.70;1.00
3912;DHT22;1971;51.778;10.330;2022-10-13T02:53:05;9.70;1.00
3912;DHT22;1971;51.778;10.330;2022-10-13T02:55:35;9.70;1.00
3912;DHT22;1971;51.778;10.330;2022-10-13T02:58:08;9.70;1.00
3912;DHT22;1971;51.778;10.330;2022-10-13T03:00:39;9.70;1.00
3912;DHT22;1971;51.778;10.330;2022-10-13T03:03:12;9.70;1.00
3912;DHT22;1971;51.778;10.330;2022-10-13T03:05:44;9.70;1.00
3912;DHT22;1971;51.778;10.330;2022-10-13T03:08:15;9.60;1.00
3912;DHT22;1971;51.778;10.330;2022-10-13T03:10:46;9.50;1.00
3912;DHT22;1971;51.778;10.330;2022-10-13T03:13:16;9.30;1.00
3912;DHT22;1971;51.778;10.330;2022-10-13T03:15:46;9.60;1.00
3912;DHT22;1971;51.778;10.330;2022-10-13T03:18:19;9.40;1.00
3912;DHT22;1971;51.778;10.330;2022-10-13T03:20:57;9.40;1.00
3912;DHT22;1971;51.778;10.330;2022-10-13T03:23:27;9.40;1.00
3912;DHT22;1971;51.778;10.330;2022-10-13T03:25:58;9.40;1.00
3912;DHT22;1971;51.778;10.330;2022-10-13T03:28:28;9.30;1.00
3912;DHT22;1971;51.778;10.330;2022-10-13T03:31:00;9.40;1.00
3912;DHT22;1971;51.778;10.330;2022-10-13T03:33:33;9.30;1.00
3912;DHT22;1971;51.778;10.330;2022-10-13T03:36:05;9.30;1.00
3912;DHT22;1971;51.778;10.330;2022-10-13T03:38:37;9.30;1.00
3912;DHT22;1971;51.778;10.330;2022-10-13T03:41:09;9.30;1.00
3912;DHT22;1971;51.778;10.330;2022-10-13T03:43:41;9.30;1.00
3912;DHT22;1971;51.778;10.330;2022-10-13T03:46:13;9.30;1.00
3912;DHT22;1971;51.778;10.330;2022-10-13T03:48:47;9.40;1.00
3912;DHT22;1971;51.778;10.330;2022-10-13T03:51:19;9.40;1.00
3912;DHT22;1971;51.778;10.330;2022-10-13T03:53:50;9.30;1.00
3912;DHT22;1971;51.778;10.330;2022-10-13T03:56:22;9.30;1.00
3912;DHT22;1971;51.778;10.330;2022-10-13T03:58:55;9.30;1.00
3912;DHT22;1971;51.778;10.330;2022-10-13T04:01:27;9.30;1.00
3912;DHT22;1971;51.778;10.330;2022-10-13T04:04:00;9.30;1.00
3912;DHT22;1971;51.778;10.330;2022-10-13T04:06:31;9.30;1.00
3912;DHT22;1971;51.778;10.330;2022-10-13T04:09:02;9.30;1.00
3912;DHT22;1971;51.778;10.330;2022-10-13T04:11:33;9.30;1.00
3912;DHT22;1971;51.778;10.330;2022-10-13T04:14:03;9.30;1.00
3912;DHT22;1971;51.778;10.330;2022-10-13T04:16:33;9.30;1.00
3912;DHT22;1971;51.778;10.330;2022-10-13T04:19:11;9.30;1.00
3912;DHT22;1971;51.778;10.330;2022-10-13T04:21:42;9.30;1.00
3912;DHT22;1971;51.778;10.330;2022-10-13T04:24:13;9.30;1.00
3912;DHT22;1971;51.778;10.330;2022-10-13T04:26:44;9.30;1.00
3912;DHT22;1971;51.778;10.330;2022-10-13T04:29:14;9.20;1.00
3912;DHT22;1971;51.778;10.330;2022-10-13T04:31:50;9.30;1.00
3912;DHT22;1971;51.778;10.330;2022-10-13T04:34:24;9.30;5.50
3912;DHT22;1971;51.778;10.330;2022-10-13T04:36:55;9.40;6.20
3912;DHT22;1971;51.778;10.330;2022-10-13T04:39:29;9.30;6.30
3912;DHT22;1971;51.778;10.330;2022-10-13T04:41:59;9.20;6.70
3912;DHT22;1971;51.778;10.330;2022-10-13T04:44:29;9.30;9.70
3912;DHT22;1971;51.778;10.330;2022-10-13T04:47:00;9.20;14.40
3912;DHT22;1971;51.778;10.330;2022-10-13T04:49:33;9.10;19.30
3912;DHT22;1971;51.778;10.330;2022-10-13T04:52:03;9.20;21.10
3912;DHT22;1971;51.778;10.330;2022-10-13T04:54:33;9.20;25.60
3912;DHT22;1971;51.778;10.330;2022-10-13T04:57:03;9.20;34.30
3912;DHT22;1971;51.778;10.330;2022-10-13T04:59:33;9.20;36.60
3912;DHT22;1971;51.778;10.330;2022-10-13T05:02:04;9.20;41.00
3912;DHT22;1971;51.778;10.330;2022-10-13T05:04:38;9.40;47.20
3912;DHT22;1971;51.778;10.330;2022-10-13T05:07:08;9.20;51.00
3912;DHT22;1971;51.778;10.330;2022-10-13T05:09:44;9.20;54.10
3912;DHT22;1971;51.778;10.330;2022-10-13T05:12:15;9.20;60.90
3912;DHT22;1971;51.778;10.330;2022-10-13T05:14:45;9.20;66.60
3912;DHT22;1971;51.778;10.330;2022-10-13T05:17:15;9.20;68.70
3912;DHT22;1971;51.778;10.330;2022-10-13T05:19:48;9.20;73.00
3912;DHT22;1971;51.778;10.330;2022-10-13T05:22:19;9.20;77.40
3912;DHT22;1971;51.778;10.330;2022-10-13T05:24:49;9.20;80.40
3912;DHT22;1971;51.778;10.330;2022-10-13T05:27:19;9.10;84.70
3912;DHT22;1971;51.778;10.330;2022-10-13T05:29:49;9.20;88.60
3912;DHT22;1971;51.778;10.330;2022-10-13T05:32:19;9.20;91.20
3912;DHT22;1971;51.778;10.330;2022-10-13T05:34:52;9.20;92.50
3912;DHT22;1971;51.778;10.330;2022-10-13T05:37:22;9.20;93.80
3912;DHT22;1971;51.778;10.330;2022-10-13T05:39:52;9.20;95.00
3912;DHT22;1971;51.778;10.330;2022-10-13T05:42:22;9.30;95.30
3912;DHT22;1971;51.778;10.330;2022-10-13T05:44:52;9.20;96.40
3912;DHT22;1971;51.778;10.330;2022-10-13T05:47:22;9.20;98.80
3912;DHT22;1971;51.778;10.330;2022-10-13T05:49:57;9.10;99.60
3912;DHT22;1971;51.778;10.330;2022-10-13T05:52:28;9.20;99.90
3912;DHT22;1971;51.778;10.330;2022-10-13T05:55:02;9.10;99.90
3912;DHT22;1971;51.778;10.330;2022-10-13T05:57:36;9.10;99.90
3912;DHT22;1971;51.778;10.330;2022-10-13T06:00:09;9.20;99.90
3912;DHT22;1971;51.778;10.330;2022-10-13T06:02:43;9.20;99.90
3912;DHT22;1971;51.778;10.330;2022-10-13T06:05:19;9.20;99.90
3912;DHT22;1971;51.778;10.330;2022-10-13T06:07:53;9.20;99.90
3912;DHT22;1971;51.778;10.330;2022-10-13T06:10:24;9.10;99.90
3912;DHT22;1971;51.778;10.330;2022-10-13T06:12:55;9.20;99.90
3912;DHT22;1971;51.778;10.330;2022-10-13T06:15:35;9.20;99.90
3912;DHT22;1971;51.778;10.330;2022-10-13T06:18:07;9.20;99.90
3912;DHT22;1971;51.778;10.330;2022-10-13T06:46:37;9.40;99.90
3912;DHT22;1971;51.778;10.330;2022-10-13T06:49:08;9.30;99.90
3912;DHT22;1971;51.778;10.330;2022-10-13T06:51:38;9.30;99.90
3912;DHT22;1971;51.778;10.330;2022-10-13T06:54:08;9.30;99.90
3912;DHT22;1971;51.778;10.330;2022-10-13T06:56:38;9.30;99.90
3912;DHT22;1971;51.778;10.330;2022-10-13T06:59:09;9.60;99.90
3912;DHT22;1971;51.778;10.330;2022-10-13T07:01:41;9.40;99.90
3912;DHT22;1971;51.778;10.330;2022-10-13T07:04:12;9.40;99.90
3912;DHT22;1971;51.778;10.330;2022-10-13T07:06:41;9.50;98.40
3912;DHT22;1971;51.778;10.330;2022-10-13T07:09:12;9.40;88.10
3912;DHT22;1971;51.778;10.330;2022-10-13T07:11:43;9.40;90.70
3912;DHT22;1971;51.778;10.330;2022-10-13T07:14:13;9.50;90.30
3912;DHT22;1971;51.778;10.330;2022-10-13T07:16:46;9.50;73.90
3912;DHT22;1971;51.778;10.330;2022-10-13T07:19:17;9.50;52.80
3912;DHT22;1971;51.778;10.330;2022-10-13T07:21:47;9.40;46.60
3912;DHT22;1971;51.778;10.330;2022-10-13T07:24:19;9.40;28.30
3912;DHT22;1971;51.778;10.330;2022-10-13T07:26:49;9.40;21.00
3912;DHT22;1971;51.778;10.330;2022-10-13T07:29:19;9.40;9.80
3912;DHT22;1971;51.778;10.330;2022-10-13T07:31:51;9.30;10.60
3912;DHT22;1971;51.778;10.330;2022-10-13T07:34:21;9.30;16.30
3912;DHT22;1971;51.778;10.330;2022-10-13T07:36:51;9.50;17.60
3912;DHT22;1971;51.778;10.330;2022-10-13T07:39:21;9.80;7.40
3912;DHT22;1971;51.778;10.330;2022-10-13T07:41:51;9.60;1.00
3912;DHT22;1971;51.778;10.330;2022-10-13T07:44:21;9.50;1.00
3912;DHT22;1971;51.778;10.330;2022-10-13T07:46:54;9.70;1.00
3912;DHT22;1971;51.778;10.330;2022-10-13T07:49:24;9.60;1.00
3912;DHT22;1971;51.778;10.330;2022-10-13T07:51:55;9.70;1.00
3912;DHT22;1971;51.778;10.330;2022-10-13T07:54:29;9.70;1.00
3912;DHT22;1971;51.778;10.330;2022-10-13T07:57:02;9.60;1.00
3912;DHT22;1971;51.778;10.330;2022-10-13T07:59:33;9.50;1.00
3912;DHT22;1971;51.778;10.330;2022-10-13T08:02:06;9.50;1.00
3912;DHT22;1971;51.778;10.330;2022-10-13T08:04:36;9.50;1.00
3912;DHT22;1971;51.778;10.330;2022-10-13T08:07:06;9.70;1.00
3912;DHT22;1971;51.778;10.330;2022-10-13T08:09:36;9.90;1.00
3912;DHT22;1971;51.778;10.330;2022-10-13T08:12:07;9.70;1.00
3912;DHT22;1971;51.778;10.330;2022-10-13T08:14:37;9.70;1.00
3912;DHT22;1971;51.778;10.330;2022-10-13T08:17:11;9.70;1.00
3912;DHT22;1971;51.778;10.330;2022-10-13T08:19:41;9.70;1.00
3912;DHT22;1971;51.778;10.330;2022-10-13T08:22:11;9.70;1.00
3912;DHT22;1971;51.778;10.330;2022-10-13T08:24:41;9.80;1.00
3912;DHT22;1971;51.778;10.330;2022-10-13T08:27:16;9.80;1.00
3912;DHT22;1971;51.778;10.330;2022-10-13T08:29:48;9.90;1.00
3912;DHT22;1971;51.778;10.330;2022-10-13T08:32:23;10.10;1.00
3912;DHT22;1971;51.778;10.330;2022-10-13T08:34:54;10.10;1.00
3912;DHT22;1971;51.778;10.330;2022-10-13T08:37:24;10.20;1.00
3912;DHT22;1971;51.778;10.330;2022-10-13T08:39:55;10.40;1.00
3912;DHT22;1971;51.778;10.330;2022-10-13T08:42:27;10.60;1.00
3912;DHT22;1971;51.778;10.330;2022-10-13T08:45:00;10.70;1.00
3912;DHT22;1971;51.778;10.330;2022-10-13T08:47:56;10.70;1.00
3912;DHT22;1971;51.778;10.330;2022-10-13T08:50:33;11.10;1.00
3912;DHT22;1971;51.778;10.330;2022-10-13T08:53:10;10.70;1.00
3912;DHT22;1971;51.778;10.330;2022-10-13T08:55:48;10.50;1.00
3912;DHT22;1971;51.778;10.330;2022-10-13T08:58:21;10.70;1.00
3912;DHT22;1971;51.778;10.330;2022-10-13T09:00:59;10.60;1.00
3912;DHT22;1971;51.778;10.330;2022-10-13T09:03:37;11.00;1.00
3912;DHT22;1971;51.778;10.330;2022-10-13T09:06:14;11.10;1.00
3912;DHT22;1971;51.778;10.330;2022-10-13T09:08:49;11.20;1.00
3912;DHT22;1971;51.778;10.330;2022-10-13T09:11:24;11.20;1.00
3912;DHT22;1971;51.778;10.330;2022-10-13T09:13:56;11.20;1.00
3912;DHT22;1971;51.778;10.330;2022-10-13T09:16:28;11.00;1.00
3912;DHT22;1971;51.778;10.330;2022-10-13T09:19:19;11.30;1.00
3912;DHT22;1971;51.778;10.330;2022-10-13T09:21:52;11.00;1.00
3912;DHT22;1971;51.778;10.330;2022-10-13T09:24:24;11.10;1.00
3912;DHT22;1971;51.778;10.330;2022-10-13T09:27:04;11.30;1.00
3912;DHT22;1971;51.778;10.330;2022-10-13T09:29:38;11.50;1.00
3912;DHT22;1971;51.778;10.330;2022-10-13T09:32:19;11.50;1.00
3912;DHT22;1971;51.778;10.330;2022-10-13T09:34:53;11.50;1.00
3912;DHT22;1971;51.778;10.330;2022-10-13T09:37:25;11.70;1.00
3912;DHT22;1971;51.778;10.330;2022-10-13T09:40:12;11.80;1.00
3912;DHT22;1971;51.778;10.330;2022-10-13T09:42:49;11.80;1.00
3912;DHT22;1971;51.778;10.330;2022-10-13T09:45:21;11.70;1.00
3912;DHT22;1971;51.778;10.330;2022-10-13T09:47:55;12.00;1.00
3912;DHT22;1971;51.778;10.330;2022-10-13T09:50:33;12.20;1.00
3912;DHT22;1971;51.778;10.330;2022-10-13T09:53:19;12.50;1.00
3912;DHT22;1971;51.778;10.330;2022-10-13T09:56:07;12.10;1.00
3912;DHT22;1971;51.778;10.330;2022-10-13T09:58:41;12.00;1.00
3912;DHT22;1971;51.778;10.330;2022-10-13T10:01:19;11.70;1.00
3912;DHT22;1971;51.778;10.330;2022-10-13T10:03:51;11.40;1.00
3912;DHT22;1971;51.778;10.330;2022-10-13T10:06:25;11.20;1.00
3912;DHT22;1971;51.778;10.330;2022-10-13T10:12:15;11.90;1.00
3912;DHT22;1971;51.778;10.330;2022-10-13T10:14:54;12.20;1.00
3912;DHT22;1971;51.778;10.330;2022-10-13T10:17:29;12.10;1.00
3912;DHT22;1971;51.778;10.330;2022-10-13T10:20:14;12.00;1.00
3912;DHT22;1971;51.778;10.330;2022-10-13T10:22:51;12.00;1.00
3912;DHT22;1971;51.778;10.330;2022-10-13T10:25:31;11.90;1.00
3912;DHT22;1971;51.778;10.330;2022-10-13T10:28:14;11.90;1.00
3912;DHT22;1971;51.778;10.330;2022-10-13T10:30:50;12.20;1.00
3912;DHT22;1971;51.778;10.330;2022-10-13T10:33:31;11.90;1.00
3912;DHT22;1971;51.778;10.330;2022-10-13T10:36:10;11.70;1.00
3912;DHT22;1971;51.778;10.330;2022-10-13T10:38:50;11.60;1.00
3912;DHT22;1971;51.778;10.330;2022-10-13T10:41:35;11.80;1.00
3912;DHT22;1971;51.778;10.330;2022-10-13T10:44:09;11.80;1.00
3912;DHT22;1971;51.778;10.330;2022-10-13T10:46:43;11.90;1.00
3912;DHT22;1971;51.778;10.330;2022-10-13T10:49:19;12.10;1.00
3912;DHT22;1971;51.778;10.330;2022-10-13T10:51:52;11.90;1.00
3912;DHT22;1971;51.778;10.330;2022-10-13T10:54:33;12.10;1.00
3912;DHT22;1971;51.778;10.330;2022-10-13T10:57:09;12.20;1.00
3912;DHT22;1971;51.778;10.330;2022-10-13T10:59:49;12.30;1.00
3912;DHT22;1971;51.778;10.330;2022-10-13T11:02:40;12.20;1.00
3912;DHT22;1971;51.778;10.330;2022-10-13T11:05:13;12.30;1.00
3912;DHT22;1971;51.778;10.330;2022-10-13T11:07:57;12.30;1.00
3912;DHT22;1971;51.778;10.330;2022-10-13T11:10:29;12.30;1.00
3912;DHT22;1971;51.778;10.330;2022-10-13T11:13:23;12.20;1.00
3912;DHT22;1971;51.778;10.330;2022-10-13T11:15:54;12.10;1.00
3912;DHT22;1971;51.778;10.330;2022-10-13T11:24:49;12.30;1.00
3912;DHT22;1971;51.778;10.330;2022-10-13T11:27:45;12.60;1.00
3912;DHT22;1971;51.778;10.330;2022-10-13T11:30:41;12.40;1.00
3912;DHT22;1971;51.778;10.330;2022-10-13T11:33:32;12.40;1.00
3912;DHT22;1971;51.778;10.330;2022-10-13T11:36:30;12.50;1.00
3912;DHT22;1971;51.778;10.330;2022-10-13T11:39:14;12.60;1.00
3912;DHT22;1971;51.778;10.330;2022-10-13T11:41:58;12.60;1.00
3912;DHT22;1971;51.778;10.330;2022-10-13T11:44:35;12.80;1.00
3912;DHT22;1971;51.778;10.330;2022-10-13T11:47:18;12.80;1.00
3912;DHT22;1971;51.778;10.330;2022-10-13T11:50:01;12.90;1.00
3912;DHT22;1971;51.778;10.330;2022-10-13T11:52:52;13.10;1.00
3912;DHT22;1971;51.778;10.330;2022-10-13T11:55:35;13.30;99.90
3912;DHT22;1971;51.778;10.330;2022-10-13T11:58:09;13.40;99.90
3912;DHT22;1971;51.778;10.330;2022-10-13T12:00:54;13.20;99.90
3912;DHT22;1971;51.778;10.330;2022-10-13T12:03:27;13.00;99.90
3912;DHT22;1971;51.778;10.330;2022-10-13T12:06:01;13.10;99.90
3912;DHT22;1971;51.778;10.330;2022-10-13T12:08:33;13.10;99.90
3912;DHT22;1971;51.778;10.330;2022-10-13T12:11:05;13.60;99.90
3912;DHT22;1971;51.778;10.330;2022-10-13T12:13:36;14.00;99.90
3912;DHT22;1971;51.778;10.330;2022-10-13T12:16:12;14.30;99.90
3912;DHT22;1971;51.778;10.330;2022-10-13T12:18:45;13.80;99.90
3912;DHT22;1971;51.778;10.330;2022-10-13T12:21:17;13.60;99.90
3912;DHT22;1971;51.778;10.330;2022-10-13T12:23:50;13.50;99.90
3912;DHT22;1971;51.778;10.330;2022-10-13T12:26:22;13.60;99.90
3912;DHT22;1971;51.778;10.330;2022-10-13T12:28:55;13.60;99.90
3912;DHT22;1971;51.778;10.330;2022-10-13T12:31:37;13.60;99.90
3912;DHT22;1971;51.778;10.330;2022-10-13T12:34:18;14.10;99.90
3912;DHT22;1971;51.778;10.330;2022-10-13T12:36:54;14.00;99.90
3912;DHT22;1971;51.778;10.330;2022-10-13T12:39:26;14.10;99.90
3912;DHT22;1971;51.778;10.330;2022-10-13T12:41:58;13.70;99.90
3912;DHT22;1971;51.778;10.330;2022-10-13T12:44:30;13.80;99.90
3912;DHT22;1971;51.778;10.330;2022-10-13T12:47:04;13.70;99.90
3912;DHT22;1971;51.778;10.330;2022-10-13T12:49:34;13.50;99.90
3912;DHT22;1971;51.778;10.330;2022-10-13T12:52:10;13.20;99.90
3912;DHT22;1971;51.778;10.330;2022-10-13T12:54:47;13.20;99.90
3912;DHT22;1971;51.778;10.330;2022-10-13T12:57:20;13.30;99.90
3912;DHT22;1971;51.778;10.330;2022-10-13T12:59:51;13.50;99.90
3912;DHT22;1971;51.778;10.330;2022-10-13T13:02:26;13.60;99.90
3912;DHT22;1971;51.778;10.330;2022-10-13T13:04:56;13.90;99.90
3912;DHT22;1971;51.778;10.330;2022-10-13T13:07:30;14.20;99.90
3912;DHT22;1971;51.778;10.330;2022-10-13T13:10:13;14.40;99.90
3912;DHT22;1971;51.778;10.330;2022-10-13T13:12:44;13.90;99.90
3912;DHT22;1971;51.778;10.330;2022-10-13T13:15:26;13.40;99.90
3912;DHT22;1971;51.778;10.330;2022-10-13T13:18:27;13.20;99.90
3912;DHT22;1971;51.778;10.330;2022-10-13T13:21:04;13.20;99.90
3912;DHT22;1971;51.778;10.330;2022-10-13T13:23:34;13.10;99.90
3912;DHT22;1971;51.778;10.330;2022-10-13T13:26:10;13.20;99.90
3912;DHT22;1971;51.778;10.330;2022-10-13T13:28:44;13.30;99.90
3912;DHT22;1971;51.778;10.330;2022-10-13T13:31:16;13.20;99.90
3912;DHT22;1971;51.778;10.330;2022-10-13T13:33:49;13.30;99.90
3912;DHT22;1971;51.778;10.330;2022-10-13T13:36:21;13.20;99.90
3912;DHT22;1971;51.778;10.330;2022-10-13T13:38:52;13.10;99.90
3912;DHT22;1971;51.778;10.330;2022-10-13T13:41:22;13.00;99.90
3912;DHT22;1971;51.778;10.330;2022-10-13T13:43:53;12.90;99.90
3912;DHT22;1971;51.778;10.330;2022-10-13T13:46:24;12.90;99.90
3912;DHT22;1971;51.778;10.330;2022-10-13T13:48:57;12.90;99.90
3912;DHT22;1971;51.778;10.330;2022-10-13T13:51:28;12.90;99.90
3912;DHT22;1971;51.778;10.330;2022-10-13T13:53:58;12.90;99.90
3912;DHT22;1971;51.778;10.330;2022-10-13T13:56:31;12.70;99.90
3912;DHT22;1971;51.778;10.330;2022-10-13T13:59:04;12.70;99.90
3912;DHT22;1971;51.778;10.330;2022-10-13T14:01:33;12.70;99.90
3912;DHT22;1971;51.778;10.330;2022-10-13T14:04:06;12.70;99.90
3912;DHT22;1971;51.778;10.330;2022-10-13T14:06:36;12.60;99.90
3912;DHT22;1971;51.778;10.330;2022-10-13T14:09:06;12.60;99.90
3912;DHT22;1971;51.778;10.330;2022-10-13T14:11:36;12.50;99.90
3912;DHT22;1971;51.778;10.330;2022-10-13T14:14:06;12.50;99.90
3912;DHT22;1971;51.778;10.330;2022-10-13T14:16:36;12.50;99.90
3912;DHT22;1971;51.778;10.330;2022-10-13T14:19:10;12.60;99.90
3912;DHT22;1971;51.778;10.330;2022-10-13T14:21:40;12.50;99.90
3912;DHT22;1971;51.778;10.330;2022-10-13T14:24:16;12.40;99.90
3912;DHT22;1971;51.778;10.330;2022-10-13T14:26:47;12.40;99.90
3912;DHT22;1971;51.778;10.330;2022-10-13T14:29:17;12.30;99.90
3912;DHT22;1971;51.778;10.330;2022-10-13T14:31:47;12.30;99.90
3912;DHT22;1971;51.778;10.330;2022-10-13T14:34:20;12.20;99.90
3912;DHT22;1971;51.778;10.330;2022-10-13T14:36:50;12.20;99.90
3912;DHT22;1971;51.778;10.330;2022-10-13T14:39:20;12.20;99.90
3912;DHT22;1971;51.778;10.330;2022-10-13T14:41:51;12.20;99.90
3912;DHT22;1971;51.778;10.330;2022-10-13T14:44:21;12.20;99.90
3912;DHT22;1971;51.778;10.330;2022-10-13T14:46:51;12.20;99.90
3912;DHT22;1971;51.778;10.330;2022-10-13T14:49:23;12.10;99.90
3912;DHT22;1971;51.778;10.330;2022-10-13T14:51:54;12.00;99.90
3912;DHT22;1971;51.778;10.330;2022-10-13T14:54:25;12.00;99.90
3912;DHT22;1971;51.778;10.330;2022-10-13T14:56:55;12.00;99.90
3912;DHT22;1971;51.778;10.330;2022-10-13T14:59:26;11.90;99.90
3912;DHT22;1971;51.778;10.330;2022-10-13T15:01:57;11.90;99.90
3912;DHT22;1971;51.778;10.330;2022-10-13T15:04:30;12.00;99.90
3912;DHT22;1971;51.778;10.330;2022-10-13T15:07:00;12.00;99.90
3912;DHT22;1971;51.778;10.330;2022-10-13T15:09:34;12.00;99.90
3912;DHT22;1971;51.778;10.330;2022-10-13T15:12:25;11.90;99.90
3912;DHT22;1971;51.778;10.330;2022-10-13T15:14:57;11.90;99.90
3912;DHT22;1971;51.778;10.330;2022-10-13T15:17:29;11.90;99.90
3912;DHT22;1971;51.778;10.330;2022-10-13T15:20:02;11.90;99.90
3912;DHT22;1971;51.778;10.330;2022-10-13T15:22:32;11.90;99.90
3912;DHT22;1971;51.778;10.330;2022-10-13T15:25:08;11.90;99.90
3912;DHT22;1971;51.778;10.330;2022-10-13T15:27:38;11.90;99.90
3912;DHT22;1971;51.778;10.330;2022-10-13T15:30:09;11.80;99.90
3912;DHT22;1971;51.778;10.330;2022-10-13T15:32:40;12.10;99.90
3912;DHT22;1971;51.778;10.330;2022-10-13T15:35:13;11.80;99.90
3912;DHT22;1971;51.778;10.330;2022-10-13T15:37:43;11.80;99.90
3912;DHT22;1971;51.778;10.330;2022-10-13T15:40:14;11.80;99.90
3912;DHT22;1971;51.778;10.330;2022-10-13T15:42:44;11.80;99.90
3912;DHT22;1971;51.778;10.330;2022-10-13T15:45:14;11.70;99.90
3912;DHT22;1971;51.778;10.330;2022-10-13T15:47:44;11.70;99.90
3912;DHT22;1971;51.778;10.330;2022-10-13T15:50:17;11.70;99.90
3912;DHT22;1971;51.778;10.330;2022-10-13T15:52:47;11.70;99.90
3912;DHT22;1971;51.778;10.330;2022-10-13T15:55:18;11.60;99.90
3912;DHT22;1971;51.778;10.330;2022-10-13T15:57:48;11.60;99.90
3912;DHT22;1971;51.778;10.330;2022-10-13T16:00:18;11.60;99.90
3912;DHT22;1971;51.778;10.330;2022-10-13T16:02:49;11.50;99.90
3912;DHT22;1971;51.778;10.330;2022-10-13T16:05:23;11.50;99.90
3912;DHT22;1971;51.778;10.330;2022-10-13T16:07:53;11.60;99.90
3912;DHT22;1971;51.778;10.330;2022-10-13T16:10:23;11.50;99.90
3912;DHT22;1971;51.778;10.330;2022-10-13T16:12:53;11.50;99.90
3912;DHT22;1971;51.778;10.330;2022-10-13T16:15:23;11.40;99.90
3912;DHT22;1971;51.778;10.330;2022-10-13T16:17:55;11.30;1.00
3912;DHT22;1971;51.778;10.330;2022-10-13T16:20:27;11.40;1.00
3912;DHT22;1971;51.778;10.330;2022-10-13T16:23:01;11.40;1.00
3912;DHT22;1971;51.778;10.330;2022-10-13T16:25:32;11.40;1.00
3912;DHT22;1971;51.778;10.330;2022-10-13T16:28:02;11.30;1.00
3912;DHT22;1971;51.778;10.330;2022-10-13T16:30:35;11.30;1.00
3912;DHT22;1971;51.778;10.330;2022-10-13T16:33:05;11.30;1.00
3912;DHT22;1971;51.778;10.330;2022-10-13T16:35:39;11.20;1.00
3912;DHT22;1971;51.778;10.330;2022-10-13T16:38:09;11.20;1.00
3912;DHT22;1971;51.778;10.330;2022-10-13T16:40:39;11.30;1.00
3912;DHT22;1971;51.778;10.330;2022-10-13T16:43:10;11.30;1.00
3912;DHT22;1971;51.778;10.330;2022-10-13T16:45:54;11.30;1.00
3912;DHT22;1971;51.778;10.330;2022-10-13T16:48:26;11.30;1.00
3912;DHT22;1971;51.778;10.330;2022-10-13T16:51:04;11.20;1.00
3912;DHT22;1971;51.778;10.330;2022-10-13T16:53:37;11.30;1.00
3912;DHT22;1971;51.778;10.330;2022-10-13T16:56:07;11.30;1.00
3912;DHT22;1971;51.778;10.330;2022-10-13T16:58:39;11.30;1.00
3912;DHT22;1971;51.778;10.330;2022-10-13T17:01:11;11.20;1.00
3912;DHT22;1971;51.778;10.330;2022-10-13T17:03:43;11.20;1.00
3912;DHT22;1971;51.778;10.330;2022-10-13T17:06:18;11.10;1.00
3912;DHT22;1971;51.778;10.330;2022-10-13T17:08:55;11.10;1.00
3912;DHT22;1971;51.778;10.330;2022-10-13T17:11:27;11.10;1.00
3912;DHT22;1971;51.778;10.330;2022-10-13T17:13:59;11.10;1.00
3912;DHT22;1971;51.778;10.330;2022-10-13T17:16:32;11.10;1.00
3912;DHT22;1971;51.778;10.330;2022-10-13T17:19:02;11.10;1.00
3912;DHT22;1971;51.778;10.330;2022-10-13T17:21:37;11.10;1.00
3912;DHT22;1971;51.778;10.330;2022-10-13T17:24:08;11.10;1.00